createdAt,value
2023-08-25T00:01:32.864Z,23.94
2023-08-25T00:04:00.911Z,24.09
2023-08-25T00:06:28.852Z,24.33
2023-08-25T00:08:56.770Z,24.50
2023-08-25T00:11:25.950Z,24.49
2023-08-25T00:13:54.222Z,24.30
2023-08-25T00:16:22.831Z,24.15
2023-08-25T00:18:50.763Z,23.81
2023-08-25T00:21:18.729Z,23.54
2023-08-25T00:23:46.719Z,23.35
2023-08-25T00:26:14.635Z,23.20
2023-08-25T00:28:44.031Z,23.16
2023-08-25T00:31:12.015Z,23.13
2023-08-25T00:33:49.409Z,23.12
2023-08-25T00:36:17.509Z,23.18
2023-08-25T00:38:45.574Z,23.13
2023-08-25T00:41:13.513Z,23.28
2023-08-25T00:43:41.434Z,23.39
2023-08-25T00:46:11.088Z,23.59
2023-08-25T00:48:40.354Z,23.79
2023-08-25T00:51:10.052Z,23.87
2023-08-25T00:53:39.681Z,23.79
2023-08-25T00:56:08.079Z,23.73
2023-08-25T00:58:36.646Z,23.58
2023-08-25T01:01:07.038Z,23.54
2023-08-25T01:03:39.273Z,23.61
2023-08-25T01:06:09.940Z,23.68
2023-08-25T01:08:39.434Z,23.66
2023-08-25T01:11:20.111Z,23.64
2023-08-25T01:13:59.019Z,23.87
2023-08-25T01:16:35.258Z,23.96
2023-08-25T01:19:06.749Z,24.10
2023-08-25T01:21:36.772Z,24.21
2023-08-25T01:24:12.559Z,24.25
2023-08-25T01:26:42.806Z,24.28
2023-08-25T01:29:11.796Z,24.23
2023-08-25T01:31:40.134Z,24.17
2023-08-25T01:34:09.084Z,23.94
2023-08-25T01:36:48.231Z,23.50
2023-08-25T01:39:17.946Z,23.35
2023-08-25T01:41:54.325Z,23.16
2023-08-25T01:44:24.989Z,23.07
2023-08-25T01:46:55.895Z,23.08
2023-08-25T01:49:25.437Z,23.08
2023-08-25T01:51:53.773Z,22.99
2023-08-25T01:54:21.736Z,22.82
2023-08-25T01:56:51.086Z,22.70
2023-08-25T01:59:19.079Z,22.78
2023-08-25T02:01:47.278Z,22.71
2023-08-25T02:04:15.279Z,22.75
2023-08-25T02:06:43.180Z,22.80
2023-08-25T02:09:12.006Z,22.86
2023-08-25T02:11:41.383Z,23.02
2023-08-25T02:14:20.945Z,23.17
2023-08-25T02:16:49.733Z,23.12
2023-08-25T02:19:17.754Z,23.17
2023-08-25T02:21:47.479Z,23.46
2023-08-25T02:24:15.616Z,23.77
2023-08-25T02:26:43.666Z,23.79
2023-08-25T02:29:12.165Z,23.77
2023-08-25T02:31:42.087Z,24.02
2023-08-25T02:34:10.214Z,24.23
2023-08-25T02:36:38.109Z,24.40
2023-08-25T02:39:06.065Z,24.52
2023-08-25T02:41:36.183Z,24.63
2023-08-25T02:44:05.229Z,24.66
2023-08-25T02:46:34.005Z,24.67
2023-08-25T02:49:03.255Z,24.63
2023-08-25T02:51:31.347Z,24.63
2023-08-25T02:53:59.274Z,24.47
2023-08-25T02:56:27.279Z,23.87
2023-08-25T02:58:55.170Z,23.61
2023-08-25T03:01:23.407Z,23.76
2023-08-25T03:03:51.412Z,23.91
2023-08-25T03:06:24.335Z,23.73
2023-08-25T03:08:52.278Z,23.29
2023-08-25T03:11:20.336Z,23.02
2023-08-25T03:13:50.819Z,22.96
2023-08-25T03:16:19.236Z,22.86
2023-08-25T03:18:47.122Z,22.87
2023-08-25T03:21:15.096Z,22.85
2023-08-25T03:23:44.640Z,23.14
2023-08-25T03:26:13.325Z,23.41
2023-08-25T03:28:41.243Z,23.55
2023-08-25T03:31:09.194Z,23.59
2023-08-25T03:33:38.670Z,23.76
2023-08-25T03:36:07.176Z,23.92
2023-08-25T03:38:35.107Z,24.06
2023-08-25T03:41:04.432Z,24.14
2023-08-25T03:43:32.478Z,24.21
2023-08-25T03:46:00.457Z,24.23
2023-08-25T03:48:29.256Z,24.14
2023-08-25T03:50:57.169Z,24.04
2023-08-25T03:53:25.149Z,24.06
2023-08-25T03:55:53.397Z,24.10
2023-08-25T03:58:23.552Z,24.17
2023-08-25T04:00:53.525Z,24.19
2023-08-25T04:03:21.584Z,24.14
2023-08-25T04:05:49.661Z,24.08
2023-08-25T04:08:17.635Z,24.07
2023-08-25T04:10:45.779Z,24.07
2023-08-25T04:13:14.711Z,24.06
2023-08-25T04:15:44.026Z,23.90
2023-08-25T04:18:12.504Z,23.73
2023-08-25T04:20:40.551Z,23.74
2023-08-25T04:23:10.085Z,23.68
2023-08-25T04:25:38.374Z,23.37
2023-08-25T04:28:07.239Z,23.42
2023-08-25T04:30:35.178Z,23.39
2023-08-25T04:33:10.134Z,23.38
2023-08-25T04:35:38.106Z,23.57
2023-08-25T04:38:06.960Z,23.71
2023-08-25T04:40:35.631Z,23.77
2023-08-25T04:43:03.616Z,23.57
2023-08-25T04:45:31.813Z,23.29
2023-08-25T04:47:59.815Z,23.20
2023-08-25T04:50:29.685Z,23.14
2023-08-25T04:52:57.653Z,22.94
2023-08-25T04:55:25.536Z,22.90
2023-08-25T04:57:54.345Z,22.87
2023-08-25T05:00:22.917Z,22.76
2023-08-25T05:02:51.485Z,22.85
2023-08-25T05:05:21.069Z,22.93
2023-08-25T05:07:50.802Z,22.81
2023-08-25T05:10:19.431Z,23.02
2023-08-25T05:12:53.790Z,22.93
2023-08-25T05:15:21.945Z,22.91
2023-08-25T05:17:49.955Z,22.91
2023-08-25T05:20:21.210Z,23.09
2023-08-25T05:22:52.046Z,22.93
2023-08-25T05:25:25.210Z,22.77
2023-08-25T05:27:53.474Z,22.82
2023-08-25T05:30:21.772Z,23.13
2023-08-25T05:32:52.420Z,23.26
2023-08-25T05:35:55.651Z,23.33
2023-08-25T05:38:25.002Z,23.46
2023-08-25T05:40:52.971Z,23.68
2023-08-25T05:43:20.929Z,23.87
2023-08-25T05:45:48.913Z,24.12
2023-08-25T05:48:16.975Z,24.39
2023-08-25T05:50:46.614Z,24.51
2023-08-25T05:53:14.684Z,24.31
2023-08-25T05:55:43.934Z,24.08
2023-08-25T05:58:13.141Z,23.83
2023-08-25T06:00:41.033Z,23.70
2023-08-25T06:03:09.989Z,23.59
2023-08-25T06:05:38.184Z,23.60
2023-08-25T06:08:06.896Z,23.71
2023-08-25T06:10:36.246Z,23.78
2023-08-25T06:13:06.341Z,23.86
2023-08-25T06:15:34.446Z,23.91
2023-08-25T06:18:03.384Z,23.95
2023-08-25T06:20:31.658Z,23.98
2023-08-25T06:22:59.769Z,23.96
2023-08-25T06:25:27.690Z,24.04
2023-08-25T06:27:55.690Z,24.15
2023-08-25T06:30:25.169Z,24.25
2023-08-25T06:32:53.527Z,24.39
2023-08-25T06:35:21.576Z,24.48
2023-08-25T06:37:49.644Z,24.59
2023-08-25T06:40:17.712Z,24.66
2023-08-25T06:42:45.727Z,24.68
2023-08-25T06:45:13.658Z,24.77
2023-08-25T06:47:42.979Z,24.85
2023-08-25T06:50:11.366Z,24.93
2023-08-25T06:52:39.214Z,25.02
2023-08-25T06:55:07.620Z,25.06
2023-08-25T06:57:35.696Z,25.04
2023-08-25T07:00:06.085Z,25.06
2023-08-25T07:02:34.074Z,25.11
2023-08-25T07:05:03.388Z,25.15
2023-08-25T07:07:32.354Z,25.24
2023-08-25T07:10:00.313Z,25.32
2023-08-25T07:12:28.288Z,25.41
2023-08-25T07:14:56.193Z,25.45
2023-08-25T07:17:24.148Z,25.52
2023-08-25T07:19:52.078Z,25.66
2023-08-25T07:22:21.882Z,25.73
2023-08-25T07:24:52.003Z,25.76
2023-08-25T07:27:20.233Z,25.77
2023-08-25T07:29:48.152Z,25.79
2023-08-25T07:32:16.136Z,25.77
2023-08-25T07:34:46.776Z,25.79
2023-08-25T07:37:14.853Z,25.79
2023-08-25T07:39:44.389Z,25.79
2023-08-25T07:42:12.269Z,25.75
2023-08-25T07:44:40.208Z,25.75
2023-08-25T07:47:09.010Z,25.77
2023-08-25T07:49:36.914Z,25.81
2023-08-25T07:52:05.031Z,25.86
2023-08-25T07:54:32.936Z,25.90
2023-08-25T07:57:02.194Z,25.86
2023-08-25T07:59:30.123Z,25.88
2023-08-25T08:01:58.023Z,25.83
2023-08-25T08:04:26.042Z,25.85
2023-08-25T08:06:53.975Z,25.88
2023-08-25T08:09:21.902Z,25.91
2023-08-25T08:11:49.803Z,25.94
2023-08-25T08:14:21.588Z,25.94
2023-08-25T08:16:52.308Z,25.97
2023-08-25T08:19:20.262Z,26.01
2023-08-25T08:21:48.125Z,25.83
2023-08-25T08:24:16.131Z,25.88
2023-08-25T08:26:45.575Z,25.87
2023-08-25T08:29:13.492Z,25.87
2023-08-25T08:31:42.705Z,25.90
2023-08-25T08:34:11.434Z,25.91
2023-08-25T08:36:39.361Z,25.95
2023-08-25T08:39:07.292Z,25.99
2023-08-25T08:41:36.048Z,26.02
2023-08-25T08:44:07.419Z,26.04
2023-08-25T08:46:37.735Z,26.10
2023-08-25T08:49:08.387Z,26.11
2023-08-25T08:51:37.746Z,26.12
2023-08-25T08:54:07.289Z,26.10
2023-08-25T08:56:36.014Z,26.28
2023-08-25T08:59:05.136Z,26.32
2023-08-25T09:01:34.526Z,26.43
2023-08-25T09:04:07.153Z,26.45
2023-08-25T09:06:41.073Z,26.49
2023-08-25T09:09:10.170Z,26.51
2023-08-25T09:11:38.480Z,26.59
2023-08-25T09:14:06.463Z,26.62
2023-08-25T09:16:35.270Z,26.63
2023-08-25T09:19:04.322Z,26.66
2023-08-25T09:21:32.716Z,26.67
2023-08-25T09:24:04.205Z,26.70
2023-08-25T09:26:38.527Z,26.70
2023-08-25T09:29:06.853Z,26.67
2023-08-25T09:31:34.995Z,26.67
2023-08-25T09:34:04.590Z,26.68
2023-08-25T09:36:32.769Z,26.68
2023-08-25T09:39:07.893Z,26.73
2023-08-25T09:41:36.116Z,26.77
2023-08-25T09:44:04.839Z,26.80
2023-08-25T09:46:34.469Z,26.82
2023-08-25T09:49:03.538Z,26.89
2023-08-25T09:51:38.205Z,26.94
2023-08-25T09:54:11.070Z,26.99
2023-08-25T09:56:40.318Z,27.05
2023-08-25T09:59:09.849Z,27.09
2023-08-25T10:01:39.089Z,27.09
2023-08-25T10:04:08.806Z,27.11
2023-08-25T10:06:39.763Z,27.15
2023-08-25T10:09:09.982Z,27.21
2023-08-25T10:11:41.131Z,27.28
2023-08-25T10:14:11.440Z,27.30
2023-08-25T10:16:41.481Z,27.31
2023-08-25T10:19:15.054Z,27.30
2023-08-25T10:21:44.661Z,27.29
2023-08-25T10:24:16.097Z,27.31
2023-08-25T10:26:45.629Z,27.33
2023-08-25T10:29:16.092Z,27.37
2023-08-25T10:31:47.937Z,27.41
2023-08-25T10:34:37.060Z,27.44
2023-08-25T10:37:06.863Z,27.46
2023-08-25T10:39:50.070Z,27.53
2023-08-25T10:42:24.883Z,27.59
2023-08-25T10:44:56.609Z,27.66
2023-08-25T10:47:25.470Z,27.67
2023-08-25T10:49:57.297Z,27.66
2023-08-25T10:52:25.825Z,27.66
2023-08-25T10:54:55.988Z,27.67
2023-08-25T10:57:42.559Z,27.65
2023-08-25T11:00:28.490Z,27.71
2023-08-25T11:02:56.647Z,27.71
2023-08-25T11:05:45.823Z,27.69
2023-08-25T11:08:30.243Z,27.68
2023-08-25T11:11:13.789Z,27.72
2023-08-25T11:13:42.865Z,27.78
2023-08-25T11:16:12.292Z,27.83
2023-08-25T11:18:43.833Z,27.85
2023-08-25T11:21:11.952Z,27.87
2023-08-25T11:23:40.895Z,27.89
2023-08-25T11:26:10.317Z,27.99
2023-08-25T11:28:39.793Z,28.07
2023-08-25T11:31:08.821Z,28.11
2023-08-25T11:33:37.142Z,28.17
2023-08-25T11:36:06.519Z,28.20
2023-08-25T11:38:34.923Z,28.24
2023-08-25T11:41:02.865Z,28.23
2023-08-25T11:43:33.622Z,28.24
2023-08-25T11:46:03.066Z,28.24
2023-08-25T11:48:32.661Z,28.26
2023-08-25T11:51:00.613Z,28.28
2023-08-25T11:53:28.733Z,28.30
2023-08-25T11:56:04.057Z,28.33
2023-08-25T11:58:33.334Z,28.39
2023-08-25T12:01:06.097Z,28.51
2023-08-25T12:03:34.353Z,28.64
2023-08-25T12:06:07.577Z,28.83
2023-08-25T12:08:36.224Z,29.05
2023-08-25T12:11:04.846Z,29.15
2023-08-25T12:13:36.554Z,29.27
2023-08-25T12:16:06.933Z,29.29
2023-08-25T12:18:35.701Z,29.38
2023-08-25T12:21:04.953Z,29.55
2023-08-25T12:23:37.263Z,29.65
2023-08-25T12:26:06.252Z,29.68
2023-08-25T12:28:34.463Z,29.78
2023-08-25T12:31:03.617Z,29.87
2023-08-25T12:33:33.624Z,29.93
2023-08-25T12:36:01.916Z,30.01
2023-08-25T12:38:30.946Z,30.11
2023-08-25T12:40:59.940Z,30.16
2023-08-25T12:43:29.143Z,30.22
2023-08-25T12:45:57.703Z,30.27
2023-08-25T12:48:25.786Z,30.33
2023-08-25T12:50:55.167Z,30.42
2023-08-25T12:53:23.107Z,30.51
2023-08-25T12:55:51.056Z,30.62
2023-08-25T12:58:19.043Z,30.71
2023-08-25T13:00:47.041Z,30.77
2023-08-25T13:03:15.361Z,30.83
2023-08-25T13:05:43.456Z,30.89
2023-08-25T13:08:12.676Z,30.93
2023-08-25T13:10:40.604Z,31.00
2023-08-25T13:13:08.573Z,31.14
2023-08-25T13:15:36.514Z,31.25
2023-08-25T13:18:04.736Z,31.32
2023-08-25T13:20:33.174Z,31.36
2023-08-25T13:23:02.009Z,31.44
2023-08-25T13:25:31.223Z,31.53
2023-08-25T13:27:59.164Z,31.62
2023-08-25T13:30:27.061Z,31.72
2023-08-25T13:32:54.968Z,31.82
2023-08-25T13:35:22.944Z,31.86
2023-08-25T13:37:51.127Z,31.93
2023-08-25T13:40:19.077Z,32.05
2023-08-25T13:42:48.289Z,32.19
2023-08-25T13:45:17.421Z,32.21
2023-08-25T13:47:45.326Z,32.30
2023-08-25T13:50:13.257Z,32.40
2023-08-25T13:52:41.255Z,32.47
2023-08-25T13:55:10.817Z,32.53
2023-08-25T13:57:39.342Z,32.55
2023-08-25T14:00:11.766Z,32.65
2023-08-25T14:02:43.300Z,32.77
2023-08-25T14:05:13.922Z,32.80
2023-08-25T14:07:42.184Z,32.87
2023-08-25T14:10:11.048Z,32.99
2023-08-25T14:12:39.772Z,33.02
2023-08-25T14:15:10.777Z,33.09
2023-08-25T14:17:38.708Z,33.12
2023-08-25T14:20:08.002Z,33.17
2023-08-25T14:22:35.900Z,33.23
2023-08-25T14:25:03.805Z,33.27
2023-08-25T14:27:31.746Z,33.31
2023-08-25T14:30:00.949Z,33.42
2023-08-25T14:32:31.329Z,33.49
2023-08-25T14:34:59.577Z,33.57
2023-08-25T14:37:27.478Z,33.65
2023-08-25T14:39:55.517Z,33.76
2023-08-25T14:42:23.422Z,33.85
2023-08-25T14:44:51.289Z,33.85
2023-08-25T14:47:19.755Z,33.83
2023-08-25T14:49:49.523Z,33.88
2023-08-25T14:52:19.042Z,33.95
2023-08-25T14:54:47.165Z,34.02
2023-08-25T14:57:15.240Z,34.07
2023-08-25T14:59:43.096Z,34.03
2023-08-25T15:02:11.044Z,34.02
2023-08-25T15:04:39.214Z,33.98
2023-08-25T15:07:08.472Z,33.99
2023-08-25T15:09:36.381Z,34.01
2023-08-25T15:12:04.641Z,34.00
2023-08-25T15:14:32.505Z,34.05
2023-08-25T15:17:00.462Z,34.14
2023-08-25T15:19:28.464Z,34.22
2023-08-25T15:21:56.313Z,34.30
2023-08-25T15:24:25.834Z,34.32
2023-08-25T15:26:53.831Z,34.39
2023-08-25T15:29:23.750Z,34.42
2023-08-25T15:31:59.036Z,34.50
2023-08-25T15:34:27.401Z,34.49
2023-08-25T15:36:55.336Z,34.52
2023-08-25T15:39:23.329Z,34.57
2023-08-25T15:41:52.530Z,34.67
2023-08-25T15:44:20.575Z,34.74
2023-08-25T15:46:48.575Z,34.55
2023-08-25T15:49:16.487Z,34.20
2023-08-25T15:51:44.368Z,33.85
2023-08-25T15:54:12.267Z,33.58
2023-08-25T15:56:40.163Z,33.41
2023-08-25T15:59:09.541Z,33.40
2023-08-25T16:01:37.453Z,33.56
2023-08-25T16:04:05.778Z,33.83
2023-08-25T16:06:33.852Z,33.86
2023-08-25T16:09:01.765Z,33.73
2023-08-25T16:11:29.638Z,33.76
2023-08-25T16:13:58.070Z,33.84
2023-08-25T16:16:27.411Z,33.84
2023-08-25T16:18:55.285Z,33.86
2023-08-25T16:21:23.263Z,33.85
2023-08-25T16:23:51.180Z,33.90
2023-08-25T16:26:22.115Z,33.88
2023-08-25T16:28:50.026Z,33.84
2023-08-25T16:31:17.944Z,33.85
2023-08-25T16:33:47.204Z,33.72
2023-08-25T16:36:15.183Z,33.45
2023-08-25T16:38:43.141Z,33.19
2023-08-25T16:41:11.253Z,32.94
2023-08-25T16:43:39.358Z,32.73
2023-08-25T16:46:08.138Z,32.60
2023-08-25T16:48:36.238Z,32.58
2023-08-25T16:51:05.500Z,32.62
2023-08-25T16:53:33.417Z,32.63
2023-08-25T16:56:01.333Z,32.62
2023-08-25T16:58:29.611Z,32.60
2023-08-25T17:00:57.700Z,32.55
2023-08-25T17:03:26.155Z,32.45
2023-08-25T17:06:00.086Z,32.24
2023-08-25T17:08:30.539Z,32.08
2023-08-25T17:10:58.493Z,31.88
2023-08-25T17:13:26.379Z,31.69
2023-08-25T17:15:54.311Z,31.53
2023-08-25T17:18:22.382Z,31.38
2023-08-25T17:20:50.313Z,31.23
2023-08-25T17:23:18.334Z,31.12
2023-08-25T17:25:48.327Z,31.01
2023-08-25T17:28:17.247Z,30.90
2023-08-25T17:30:45.187Z,30.81
2023-08-25T17:33:13.330Z,30.70
2023-08-25T17:35:41.659Z,30.62
2023-08-25T17:38:10.305Z,30.52
2023-08-25T17:40:40.499Z,30.44
2023-08-25T17:43:10.881Z,30.37
2023-08-25T17:45:38.893Z,30.31
2023-08-25T17:48:07.200Z,30.23
2023-08-25T17:50:35.392Z,30.06
2023-08-25T17:53:03.254Z,30.10
2023-08-25T17:55:31.121Z,29.98
2023-08-25T17:57:58.975Z,29.96
2023-08-25T18:00:28.215Z,29.92
2023-08-25T18:02:56.559Z,29.86
2023-08-25T18:05:24.737Z,29.81
2023-08-25T18:07:52.666Z,29.76
2023-08-25T18:10:21.637Z,29.72
2023-08-25T18:12:49.480Z,29.69
2023-08-25T18:15:17.345Z,29.65
2023-08-25T18:17:46.599Z,29.62
2023-08-25T18:20:14.521Z,29.58
2023-08-25T18:22:42.562Z,29.56
2023-08-25T18:25:10.555Z,29.52
2023-08-25T18:27:38.417Z,29.48
2023-08-25T18:30:07.756Z,29.45
2023-08-25T18:32:36.041Z,29.41
2023-08-25T18:35:06.061Z,29.36
2023-08-25T18:37:33.897Z,29.33
2023-08-25T18:40:01.819Z,29.32
2023-08-25T18:42:30.251Z,29.30
2023-08-25T18:44:58.092Z,29.27
2023-08-25T18:47:26.013Z,29.25
2023-08-25T18:49:53.924Z,29.22
2023-08-25T18:52:23.325Z,29.20
2023-08-25T18:54:51.409Z,29.17
2023-08-25T18:57:23.250Z,29.16
2023-08-25T18:59:51.993Z,29.13
2023-08-25T19:02:19.909Z,29.13
2023-08-25T19:04:48.264Z,29.09
2023-08-25T19:07:16.258Z,29.06
2023-08-25T19:09:49.219Z,29.05
2023-08-25T19:12:17.628Z,29.04
2023-08-25T19:14:45.461Z,29.04
2023-08-25T19:17:13.396Z,29.03
2023-08-25T19:19:41.291Z,29.02
2023-08-25T19:22:10.249Z,28.99
2023-08-25T19:24:38.771Z,28.97
2023-08-25T19:27:08.366Z,28.96
2023-08-25T19:29:36.259Z,28.93
2023-08-25T19:32:04.207Z,28.91
2023-08-25T19:34:32.450Z,28.90
2023-08-25T19:37:00.314Z,28.87
2023-08-25T19:39:28.235Z,28.86
2023-08-25T19:41:56.081Z,28.84
2023-08-25T19:44:25.577Z,28.83
2023-08-25T19:46:53.802Z,28.82
2023-08-25T19:49:21.911Z,28.81
2023-08-25T19:51:49.865Z,28.78
2023-08-25T19:54:19.008Z,28.76
2023-08-25T19:56:46.908Z,28.73
2023-08-25T19:59:14.826Z,28.70
2023-08-25T20:01:44.025Z,28.68
2023-08-25T20:04:11.944Z,28.63
2023-08-25T20:06:41.602Z,28.48
2023-08-25T20:09:11.163Z,28.45
2023-08-25T20:11:39.265Z,28.49
2023-08-25T20:14:07.150Z,28.48
2023-08-25T20:16:35.188Z,28.46
2023-08-25T20:19:04.908Z,28.45
2023-08-25T20:21:33.925Z,28.45
2023-08-25T20:24:01.806Z,28.43
2023-08-25T20:26:29.655Z,28.39
2023-08-25T20:28:59.704Z,28.37
2023-08-25T20:31:27.949Z,28.37
2023-08-25T20:33:55.803Z,28.35
2023-08-25T20:36:25.122Z,28.36
2023-08-25T20:38:52.982Z,28.32
2023-08-25T20:41:21.070Z,28.31
2023-08-25T20:43:49.054Z,28.30
2023-08-25T20:46:18.632Z,28.28
2023-08-25T20:48:48.888Z,28.27
2023-08-25T20:51:17.217Z,28.27
2023-08-25T20:53:46.481Z,28.27
2023-08-25T20:56:14.560Z,28.26
2023-08-25T20:58:42.594Z,28.24
2023-08-25T21:01:11.162Z,28.13
2023-08-25T21:03:39.792Z,28.16
2023-08-25T21:06:08.112Z,28.12
2023-08-25T21:08:36.740Z,28.07
2023-08-25T21:11:06.165Z,28.09
2023-08-25T21:13:34.770Z,28.05
2023-08-25T21:16:02.963Z,28.01
2023-08-25T21:18:31.118Z,27.93
2023-08-25T21:21:01.097Z,27.89
2023-08-25T21:23:29.011Z,27.79
2023-08-25T21:26:00.238Z,27.60
2023-08-25T21:28:29.867Z,27.41
2023-08-25T21:30:58.830Z,27.26
2023-08-25T21:33:27.991Z,27.15
2023-08-25T21:35:56.035Z,27.14
2023-08-25T21:38:24.081Z,27.07
2023-08-25T21:40:51.984Z,26.92
2023-08-25T21:43:19.925Z,26.91
2023-08-25T21:45:50.139Z,26.87
2023-08-25T21:48:18.284Z,26.84
2023-08-25T21:50:47.806Z,26.76
2023-08-25T21:53:15.932Z,26.76
2023-08-25T21:55:44.931Z,26.81
2023-08-25T21:58:13.531Z,26.90
2023-08-25T22:00:42.239Z,27.05
2023-08-25T22:03:11.612Z,27.22
2023-08-25T22:05:39.594Z,27.32
2023-08-25T22:08:08.873Z,27.38
2023-08-25T22:10:37.638Z,27.37
2023-08-25T22:13:06.597Z,27.38
2023-08-25T22:15:34.643Z,27.43
2023-08-25T22:18:02.804Z,27.45
2023-08-25T22:20:32.105Z,27.46
2023-08-25T22:23:00.106Z,27.45
2023-08-25T22:25:28.024Z,27.41
2023-08-25T22:27:55.984Z,27.41
2023-08-25T22:30:24.112Z,27.36
2023-08-25T22:35:23.044Z,26.95
2023-08-25T22:37:52.373Z,26.78
2023-08-25T22:40:20.285Z,26.76
2023-08-25T22:42:48.136Z,26.81
2023-08-25T22:45:16.305Z,26.86
2023-08-25T22:47:44.412Z,26.93
2023-08-25T22:50:12.741Z,26.98
2023-08-25T22:52:40.683Z,27.04
2023-08-25T22:55:10.568Z,26.81
2023-08-25T22:57:38.543Z,26.59
2023-08-25T23:00:09.661Z,26.41
2023-08-25T23:02:37.695Z,26.23
2023-08-25T23:05:06.415Z,26.18
2023-08-25T23:07:34.363Z,26.14
2023-08-25T23:10:02.215Z,26.15
2023-08-25T23:12:31.713Z,26.18
2023-08-25T23:14:59.726Z,26.08
2023-08-25T23:17:27.618Z,26.05
2023-08-25T23:19:55.919Z,26.00
2023-08-25T23:22:23.883Z,26.06
2023-08-25T23:24:52.383Z,26.07
2023-08-25T23:27:20.288Z,26.06
2023-08-25T23:29:49.552Z,26.04
2023-08-25T23:32:17.410Z,26.01
2023-08-25T23:34:46.952Z,25.90
2023-08-25T23:37:14.903Z,25.82
2023-08-25T23:39:42.761Z,25.79
2023-08-25T23:42:10.793Z,25.79
2023-08-25T23:44:38.781Z,25.71
2023-08-25T23:47:08.142Z,25.76
2023-08-25T23:49:36.075Z,25.70
2023-08-25T23:52:04.761Z,25.68
2023-08-25T23:54:32.643Z,25.59
2023-08-25T23:57:00.694Z,25.67
2023-08-25T23:59:28.756Z,25.72
